Pinnacle, Arkansas
Current Conditions -  °F | °C
As of 11:53 PM on Monday 26 Jan 2015 (Local Time) from KLIT Reporting Station
Clear Clear  
Wind Chill: 41°   Ceiling: Unl
Heat Index: 46°   Visibility: 10mi
Dew Point: 34°   Wind: 9mph
Humidity: 63%   Direction: 250°WSW
Pressure: 30"   Gusts: NA
Location:  34.8869°N, 92.5324°W
Report Text: KLIT 270553Z 25008KT 10SM CLR 08/01 A3000 RMK AO2 SLP162 T00780011 10139 20078 401670011 50001
Loading
Personal Weather Stations






























Interactive Weather Map New forecast layout! Learn more

10-Day Weather Forecast

Advertisements
Track Severe Weather on mobile